Аэропорт: Псков. Псков

ICAO: ULOO

METAR:
2019/03/26 13:00
ULOO 261300Z 31007MPS 270V340 P5000 SCT033 04/M07 Q1006 R19/090060 NOSIG RMK QFE750
METAR:
2016/02/06 08:39
TAF 
      AMD TAF 
      AMD ULOO 061936Z 0608/0703 CNL